createdAt,value
2018-12-20T00:02:00.409Z,7.90
2018-12-20T00:04:27.937Z,7.80
2018-12-20T00:06:55.496Z,7.80
2018-12-20T00:09:23.120Z,7.80
2018-12-20T00:11:50.886Z,7.80
2018-12-20T00:14:18.481Z,7.80
2018-12-20T00:16:48.033Z,7.70
2018-12-20T00:19:15.650Z,7.70
2018-12-20T00:21:43.174Z,7.70
2018-12-20T00:24:10.704Z,7.70
2018-12-20T00:26:38.210Z,7.60
2018-12-20T00:29:05.849Z,7.60
2018-12-20T00:31:33.571Z,7.60
2018-12-20T00:34:01.162Z,7.60
2018-12-20T00:36:28.959Z,7.60
2018-12-20T00:38:56.665Z,7.60
2018-12-20T00:41:24.485Z,7.70
2018-12-20T00:43:51.996Z,7.70
2018-12-20T00:46:19.600Z,7.70
2018-12-20T00:48:47.146Z,7.70
2018-12-20T00:51:14.714Z,7.70
2018-12-20T00:53:42.701Z,7.60
2018-12-20T00:56:10.513Z,7.60
2018-12-20T00:58:38.163Z,7.60
2018-12-20T01:01:05.748Z,7.60
2018-12-20T01:03:33.342Z,7.60
2018-12-20T01:06:00.852Z,7.60
2018-12-20T01:08:28.468Z,7.60
2018-12-20T01:10:56.070Z,7.50
2018-12-20T01:13:23.628Z,7.50
2018-12-20T01:15:51.152Z,7.50
2018-12-20T01:18:18.845Z,7.50
2018-12-20T01:20:46.685Z,7.50
2018-12-20T01:23:14.377Z,7.50
2018-12-20T01:25:42.138Z,7.50
2018-12-20T01:28:09.791Z,7.50
2018-12-20T01:30:37.564Z,7.40
2018-12-20T01:33:05.224Z,7.50
2018-12-20T01:35:33.125Z,7.40
2018-12-20T01:38:00.759Z,7.50
2018-12-20T01:40:28.495Z,7.50
2018-12-20T01:42:56.137Z,7.50
2018-12-20T01:45:23.740Z,7.50
2018-12-20T01:47:51.467Z,7.50
2018-12-20T01:50:19.235Z,7.50
2018-12-20T01:52:46.806Z,7.50
2018-12-20T01:55:14.371Z,7.50
2018-12-20T01:57:42.015Z,7.50
2018-12-20T02:00:10.837Z,7.40
2018-12-20T02:02:38.392Z,7.40
2018-12-20T02:05:06.011Z,7.40
2018-12-20T02:07:33.602Z,7.40
2018-12-20T02:10:01.185Z,7.40
2018-12-20T02:12:28.754Z,7.40
2018-12-20T02:15:01.557Z,7.40
2018-12-20T02:17:25.800Z,7.30
2018-12-20T02:19:53.614Z,7.40
2018-12-20T02:22:21.318Z,7.30
2018-12-20T02:24:49.005Z,7.30
2018-12-20T02:27:16.718Z,7.30
2018-12-20T02:29:44.492Z,7.30
2018-12-20T02:32:12.007Z,7.30
2018-12-20T02:34:39.529Z,7.20
2018-12-20T02:37:07.216Z,7.20
2018-12-20T02:39:35.055Z,7.20
2018-12-20T02:42:02.872Z,7.20
2018-12-20T02:44:30.690Z,7.20
2018-12-20T02:46:58.518Z,7.20
2018-12-20T02:49:26.269Z,7.20
2018-12-20T02:51:54.210Z,7.10
2018-12-20T02:54:21.930Z,7.10
2018-12-20T02:56:49.431Z,7.10
2018-12-20T02:59:17.031Z,7.20
2018-12-20T03:01:44.904Z,7.20
2018-12-20T03:04:12.530Z,7.10
2018-12-20T03:06:40.134Z,7.20
2018-12-20T03:09:07.692Z,7.10
2018-12-20T03:11:35.299Z,7.10
2018-12-20T03:14:03.180Z,7.10
2018-12-20T03:16:30.914Z,7.10
2018-12-20T03:18:58.757Z,7.10
2018-12-20T03:21:26.694Z,7.20
2018-12-20T03:23:54.512Z,7.20
2018-12-20T03:26:22.431Z,7.20
2018-12-20T03:28:50.263Z,7.20
2018-12-20T03:31:18.212Z,7.20
2018-12-20T03:33:46.074Z,7.20
2018-12-20T03:36:13.800Z,7.30
2018-12-20T03:38:41.532Z,7.30
2018-12-20T03:41:09.395Z,7.30
2018-12-20T03:43:37.071Z,7.40
2018-12-20T03:46:04.783Z,7.40
2018-12-20T03:48:32.440Z,7.40
2018-12-20T03:51:00.103Z,7.40
2018-12-20T03:53:27.777Z,7.40
2018-12-20T03:55:55.495Z,7.50
2018-12-20T03:58:23.189Z,7.50
2018-12-20T04:00:51.123Z,7.50
2018-12-20T04:03:18.877Z,7.50
2018-12-20T04:05:46.692Z,7.60
2018-12-20T04:08:14.427Z,7.60
2018-12-20T04:10:42.417Z,7.60
2018-12-20T04:13:10.154Z,7.60
2018-12-20T04:15:38.249Z,7.60
2018-12-20T04:18:06.317Z,7.60
2018-12-20T04:20:34.351Z,7.60
2018-12-20T04:23:02.026Z,7.60
2018-12-20T04:25:29.851Z,7.60
2018-12-20T04:27:57.615Z,7.70
2018-12-20T04:30:25.459Z,7.70
2018-12-20T04:32:53.231Z,7.70
2018-12-20T04:35:20.730Z,7.70
2018-12-20T04:37:48.240Z,7.70
2018-12-20T04:40:16.010Z,7.70
2018-12-20T04:42:43.874Z,7.70
2018-12-20T04:45:11.893Z,7.80
2018-12-20T04:47:39.961Z,7.80
2018-12-20T04:50:07.809Z,7.80
2018-12-20T04:52:35.606Z,7.80
2018-12-20T04:55:03.485Z,7.80
2018-12-20T04:57:31.542Z,8.10
2018-12-20T04:59:59.563Z,7.80
2018-12-20T05:02:27.357Z,7.80
2018-12-20T05:04:55.395Z,7.80
2018-12-20T05:07:23.315Z,7.90
2018-12-20T05:09:51.249Z,7.80
2018-12-20T05:12:18.877Z,7.90
2018-12-20T05:14:46.696Z,7.90
2018-12-20T05:17:14.607Z,7.90
2018-12-20T05:19:45.574Z,7.90
2018-12-20T05:22:13.227Z,7.90
2018-12-20T05:24:41.108Z,7.90
2018-12-20T05:27:08.807Z,7.90
2018-12-20T05:29:36.590Z,7.80
2018-12-20T05:32:04.188Z,7.80
2018-12-20T05:34:31.721Z,7.80
2018-12-20T05:36:59.287Z,7.80
2018-12-20T05:39:27.046Z,7.80
2018-12-20T05:41:54.911Z,7.80
2018-12-20T05:44:22.500Z,7.80
2018-12-20T05:46:56.069Z,7.80
2018-12-20T05:49:24.322Z,7.80
2018-12-20T05:51:52.058Z,7.80
2018-12-20T05:54:19.999Z,7.80
2018-12-20T05:56:47.762Z,7.80
2018-12-20T05:59:15.432Z,7.80
2018-12-20T06:01:43.015Z,7.80
2018-12-20T06:04:11.597Z,7.80
2018-12-20T06:06:39.384Z,7.80
2018-12-20T06:09:07.395Z,7.80
2018-12-20T06:11:34.927Z,7.80
2018-12-20T06:14:02.612Z,7.80
2018-12-20T06:16:30.275Z,7.90
2018-12-20T06:18:57.901Z,7.90
2018-12-20T06:21:25.635Z,8.00
2018-12-20T06:23:53.388Z,8.10
2018-12-20T06:26:20.894Z,8.10
2018-12-20T06:28:48.398Z,8.20
2018-12-20T06:31:15.926Z,8.10
2018-12-20T06:33:43.440Z,8.10
2018-12-20T06:36:10.959Z,8.10
2018-12-20T06:38:38.465Z,8.20
2018-12-20T06:41:05.987Z,8.20
2018-12-20T06:43:33.629Z,8.20
2018-12-20T06:46:01.155Z,8.20
2018-12-20T06:48:28.682Z,8.10
2018-12-20T06:50:56.191Z,8.20
2018-12-20T06:53:23.709Z,8.20
2018-12-20T06:55:51.227Z,8.20
2018-12-20T06:58:18.761Z,8.20
2018-12-20T07:00:46.266Z,8.20
2018-12-20T07:03:13.777Z,8.20
2018-12-20T07:05:41.286Z,8.20
2018-12-20T07:08:08.801Z,8.20
2018-12-20T07:10:36.495Z,8.20
2018-12-20T07:13:05.427Z,8.30
2018-12-20T07:15:33.075Z,8.20
2018-12-20T07:18:00.613Z,8.20
2018-12-20T07:20:28.119Z,8.20
2018-12-20T07:22:55.619Z,8.30
2018-12-20T07:25:23.126Z,8.20
2018-12-20T07:27:50.640Z,8.20
2018-12-20T07:30:18.149Z,8.20
2018-12-20T07:32:45.662Z,8.30
2018-12-20T07:35:13.168Z,8.20
2018-12-20T07:37:40.681Z,8.20
2018-12-20T07:40:09.230Z,8.20
2018-12-20T07:42:36.748Z,8.30
2018-12-20T07:45:05.256Z,8.30
2018-12-20T07:47:32.770Z,8.30
2018-12-20T07:50:00.283Z,8.20
2018-12-20T07:52:27.801Z,8.20
2018-12-20T07:54:55.319Z,8.20
2018-12-20T07:57:24.815Z,8.20
2018-12-20T07:59:52.380Z,8.20
2018-12-20T08:02:19.901Z,8.20
2018-12-20T08:04:47.417Z,8.20
2018-12-20T08:07:14.933Z,8.10
2018-12-20T08:09:42.465Z,8.10
2018-12-20T08:12:09.977Z,8.10
2018-12-20T08:14:37.509Z,8.10
2018-12-20T08:17:05.199Z,8.10
2018-12-20T08:19:36.387Z,8.20
2018-12-20T08:22:02.385Z,8.20
2018-12-20T08:24:30.089Z,8.20
2018-12-20T08:26:57.601Z,8.20
2018-12-20T08:29:25.121Z,8.20
2018-12-20T08:31:52.651Z,8.10
2018-12-20T08:34:20.174Z,8.10
2018-12-20T08:36:47.686Z,8.10
2018-12-20T08:39:15.202Z,8.20
2018-12-20T08:41:42.741Z,8.20
2018-12-20T08:44:10.270Z,8.30
2018-12-20T08:46:39.811Z,8.30
2018-12-20T08:49:07.468Z,8.30
2018-12-20T08:51:34.982Z,8.30
2018-12-20T08:54:02.518Z,8.30
2018-12-20T08:56:30.024Z,8.30
2018-12-20T08:58:57.527Z,8.30
2018-12-20T09:01:25.160Z,8.30
2018-12-20T09:03:52.666Z,8.40
2018-12-20T09:06:20.182Z,8.40
2018-12-20T09:08:47.708Z,8.40
2018-12-20T09:11:15.360Z,8.50
2018-12-20T09:13:42.926Z,8.50
2018-12-20T09:16:10.449Z,8.50
2018-12-20T09:18:37.987Z,8.50
2018-12-20T09:21:05.515Z,8.50
2018-12-20T09:23:33.032Z,8.50
2018-12-20T09:26:00.551Z,8.60
2018-12-20T09:28:28.064Z,8.50
2018-12-20T09:30:55.575Z,8.50
2018-12-20T09:33:23.093Z,8.50
2018-12-20T09:35:50.593Z,8.40
2018-12-20T09:38:18.119Z,8.40
2018-12-20T09:40:45.638Z,8.50
2018-12-20T09:43:13.143Z,8.40
2018-12-20T09:45:40.888Z,8.30
2018-12-20T09:48:08.611Z,8.30
2018-12-20T09:50:36.123Z,8.30
2018-12-20T09:53:03.641Z,8.30
2018-12-20T09:55:31.156Z,8.10
2018-12-20T09:57:58.691Z,8.10
2018-12-20T10:00:26.189Z,8.10
2018-12-20T10:02:53.712Z,8.10
2018-12-20T10:05:21.220Z,8.10
2018-12-20T10:07:48.740Z,8.10
2018-12-20T10:10:16.249Z,8.10
2018-12-20T10:12:43.778Z,8.00
2018-12-20T10:15:11.336Z,8.00
2018-12-20T10:17:38.844Z,7.90
2018-12-20T10:20:08.015Z,7.80
2018-12-20T10:22:35.523Z,7.80
2018-12-20T10:25:03.046Z,7.90
2018-12-20T10:27:31.580Z,7.90
2018-12-20T10:29:59.496Z,7.90
2018-12-20T10:32:27.006Z,7.90
2018-12-20T10:34:54.527Z,8.00
2018-12-20T10:37:22.058Z,8.00
2018-12-20T10:39:49.579Z,8.20
2018-12-20T10:42:17.110Z,8.30
2018-12-20T10:44:44.625Z,8.30
2018-12-20T10:47:18.660Z,8.30
2018-12-20T10:49:46.232Z,8.30
2018-12-20T10:52:13.756Z,8.30
2018-12-20T10:54:41.265Z,8.40
2018-12-20T10:57:08.808Z,8.30
2018-12-20T10:59:36.338Z,8.30
2018-12-20T11:02:09.602Z,8.40
2018-12-20T11:07:46.937Z,8.40
2018-12-20T11:10:22.305Z,8.50
2018-12-20T11:12:49.872Z,8.50
2018-12-20T11:15:17.516Z,8.50
2018-12-20T11:17:45.088Z,8.70
2018-12-20T11:20:12.665Z,8.80
2018-12-20T11:22:40.259Z,8.90
2018-12-20T11:25:07.817Z,9.00
2018-12-20T11:27:35.336Z,9.10
2018-12-20T11:30:03.035Z,9.20
2018-12-20T11:32:30.651Z,9.20
2018-12-20T11:34:58.152Z,9.10
2018-12-20T11:37:25.664Z,9.10
2018-12-20T11:39:59.523Z,9.10
2018-12-20T11:42:22.791Z,9.10
2018-12-20T11:44:50.297Z,9.10
2018-12-20T11:47:23.561Z,9.10
2018-12-20T11:49:51.057Z,9.30
2018-12-20T11:52:18.615Z,9.40
2018-12-20T11:54:46.169Z,9.60
2018-12-20T11:57:13.678Z,9.80
2018-12-20T11:59:41.250Z,9.90
2018-12-20T12:02:08.759Z,9.90
2018-12-20T12:04:36.276Z,9.80
2018-12-20T12:07:03.781Z,9.90
2018-12-20T12:09:31.443Z,9.80
2018-12-20T12:11:58.954Z,9.80
2018-12-20T12:14:26.455Z,9.80
2018-12-20T12:16:53.965Z,9.70
2018-12-20T12:19:21.517Z,9.60
2018-12-20T12:21:49.603Z,9.60
2018-12-20T12:24:17.223Z,9.60
2018-12-20T12:26:44.733Z,9.50
2018-12-20T12:29:12.248Z,9.50
2018-12-20T12:31:39.759Z,9.50
2018-12-20T12:34:07.291Z,9.40
2018-12-20T12:36:34.824Z,9.40
2018-12-20T12:39:02.453Z,9.40
2018-12-20T12:41:29.965Z,9.30
2018-12-20T12:43:57.487Z,9.40
2018-12-20T12:46:25.023Z,9.40
2018-12-20T12:48:52.567Z,9.40
2018-12-20T12:51:20.077Z,9.40
2018-12-20T12:53:47.613Z,9.40
2018-12-20T12:56:15.122Z,9.40
2018-12-20T12:58:42.797Z,9.50
2018-12-20T13:01:10.317Z,9.50
2018-12-20T13:03:37.824Z,9.50
2018-12-20T13:06:05.347Z,9.40
2018-12-20T13:08:32.890Z,9.40
2018-12-20T13:11:00.523Z,9.40
2018-12-20T13:13:28.034Z,9.40
2018-12-20T13:15:55.563Z,9.40
2018-12-20T13:18:23.153Z,9.50
2018-12-20T13:20:50.677Z,9.50
2018-12-20T13:23:18.184Z,9.40
2018-12-20T13:25:45.703Z,9.50
2018-12-20T13:28:13.259Z,9.50
2018-12-20T13:30:40.768Z,9.50
2018-12-20T13:33:08.279Z,9.50
2018-12-20T13:35:35.790Z,9.60
2018-12-20T13:38:03.299Z,9.50
2018-12-20T13:40:30.800Z,9.40
2018-12-20T13:42:58.312Z,9.40
2018-12-20T13:45:25.831Z,9.40
2018-12-20T13:47:53.344Z,9.30
2018-12-20T13:50:20.854Z,9.20
2018-12-20T13:52:48.437Z,9.20
2018-12-20T13:55:16.014Z,9.20
2018-12-20T13:57:43.658Z,9.20
2018-12-20T14:00:13.129Z,9.20
2018-12-20T14:02:40.654Z,9.20
2018-12-20T14:05:08.172Z,9.20
2018-12-20T14:07:35.737Z,9.20
2018-12-20T14:10:03.260Z,9.20
2018-12-20T14:12:30.802Z,9.20
2018-12-20T14:14:58.312Z,9.20
2018-12-20T14:17:25.836Z,9.20
2018-12-20T14:19:53.348Z,9.20
2018-12-20T14:22:20.883Z,9.20
2018-12-20T14:24:48.516Z,9.20
2018-12-20T14:27:16.041Z,9.10
2018-12-20T14:29:43.552Z,9.00
2018-12-20T14:32:11.062Z,9.10
2018-12-20T14:34:38.577Z,9.10
2018-12-20T14:37:06.096Z,9.10
2018-12-20T14:39:33.608Z,9.00
2018-12-20T14:42:01.125Z,9.00
2018-12-20T14:44:28.633Z,9.00
2018-12-20T14:46:56.141Z,8.90
2018-12-20T14:49:23.633Z,8.90
2018-12-20T14:51:51.157Z,8.90
2018-12-20T14:54:18.675Z,8.90
2018-12-20T14:56:46.238Z,9.00
2018-12-20T14:59:13.742Z,9.00
2018-12-20T15:01:41.263Z,8.90
2018-12-20T15:04:08.775Z,9.00
2018-12-20T15:06:36.290Z,9.00
2018-12-20T15:09:06.346Z,9.20
2018-12-20T15:11:33.864Z,9.20
2018-12-20T15:14:01.387Z,9.20
2018-12-20T15:16:29.013Z,9.20
2018-12-20T15:18:56.532Z,9.30
2018-12-20T15:21:24.045Z,9.20
2018-12-20T15:23:51.623Z,9.20
2018-12-20T15:26:19.142Z,9.30
2018-12-20T15:28:46.647Z,9.40
2018-12-20T15:31:14.201Z,9.40
2018-12-20T15:33:41.709Z,9.30
2018-12-20T15:36:09.281Z,9.30
2018-12-20T15:38:36.792Z,9.30
2018-12-20T15:41:04.315Z,9.30
2018-12-20T15:43:32.326Z,9.20
2018-12-20T15:45:59.845Z,9.20
2018-12-20T15:48:27.912Z,9.20
2018-12-20T15:50:55.507Z,9.20
2018-12-20T15:53:23.026Z,9.20
2018-12-20T15:55:50.562Z,9.20
2018-12-20T15:58:20.056Z,9.20
2018-12-20T16:00:47.681Z,9.20
2018-12-20T16:03:22.754Z,9.10
2018-12-20T16:05:50.752Z,9.20
2018-12-20T16:08:18.402Z,9.20
2018-12-20T16:10:45.908Z,9.20
2018-12-20T16:13:13.470Z,9.20
2018-12-20T16:15:40.970Z,9.20
2018-12-20T16:18:08.485Z,9.10
2018-12-20T16:20:36.000Z,9.10
2018-12-20T16:23:03.502Z,9.10
2018-12-20T16:25:31.010Z,9.10
2018-12-20T16:27:58.519Z,9.20
2018-12-20T16:30:26.082Z,9.20
2018-12-20T16:32:53.681Z,9.20
2018-12-20T16:35:21.271Z,9.20
2018-12-20T16:37:48.822Z,9.20
2018-12-20T16:40:16.340Z,9.30
2018-12-20T16:42:43.974Z,9.30
2018-12-20T16:45:11.497Z,9.20
2018-12-20T16:47:39.011Z,9.20
2018-12-20T16:50:06.752Z,9.20
2018-12-20T16:52:34.386Z,9.20
2018-12-20T16:55:01.899Z,9.20
2018-12-20T16:57:29.415Z,9.20
2018-12-20T16:59:56.925Z,9.10
2018-12-20T17:02:24.437Z,9.10
2018-12-20T17:04:52.094Z,9.10
2018-12-20T17:07:19.652Z,9.10
2018-12-20T17:09:47.169Z,9.10
2018-12-20T17:12:14.675Z,9.20
2018-12-20T17:14:42.184Z,9.20
2018-12-20T17:17:09.691Z,9.20
2018-12-20T17:19:37.218Z,9.10
2018-12-20T17:22:04.732Z,9.10
2018-12-20T17:24:32.251Z,9.10
2018-12-20T17:26:59.922Z,9.10
2018-12-20T17:29:27.427Z,9.10
2018-12-20T17:31:54.945Z,9.10
2018-12-20T17:34:22.465Z,9.10
2018-12-20T17:36:50.099Z,9.10
2018-12-20T17:39:17.610Z,9.00
2018-12-20T17:41:45.117Z,8.90
2018-12-20T17:44:12.634Z,8.90
2018-12-20T17:46:40.143Z,8.90
2018-12-20T17:49:07.666Z,8.90
2018-12-20T17:51:35.240Z,8.80
2018-12-20T17:54:02.784Z,8.80
2018-12-20T17:56:33.992Z,8.70
2018-12-20T17:59:01.679Z,8.60
2018-12-20T18:01:29.200Z,8.60
2018-12-20T18:03:56.741Z,8.50
2018-12-20T18:06:24.449Z,8.50
2018-12-20T18:08:51.944Z,8.60
2018-12-20T18:11:19.449Z,8.70
2018-12-20T18:13:46.992Z,8.70
2018-12-20T18:16:14.582Z,8.70
2018-12-20T18:18:42.174Z,8.70
2018-12-20T18:21:09.675Z,8.70
2018-12-20T18:23:37.179Z,8.70
2018-12-20T18:26:04.930Z,8.70
2018-12-20T18:28:32.440Z,8.60
2018-12-20T18:30:59.956Z,8.60
2018-12-20T18:33:27.462Z,8.70
2018-12-20T18:35:55.008Z,8.70
2018-12-20T18:38:22.540Z,8.70
2018-12-20T18:40:50.062Z,8.70
2018-12-20T18:43:17.580Z,8.70
2018-12-20T18:45:45.280Z,8.80
2018-12-20T18:48:12.822Z,8.80
2018-12-20T18:50:40.338Z,8.80
2018-12-20T18:53:07.873Z,8.80
2018-12-20T18:55:35.389Z,8.90
2018-12-20T18:58:02.932Z,8.90
2018-12-20T19:00:30.451Z,8.90
2018-12-20T19:02:57.965Z,8.90
2018-12-20T19:05:25.494Z,9.00
2018-12-20T19:07:53.017Z,9.00
2018-12-20T19:10:20.588Z,9.00
2018-12-20T19:12:48.231Z,9.10
2018-12-20T19:15:15.739Z,9.10
2018-12-20T19:17:43.259Z,9.10
2018-12-20T19:20:15.958Z,9.10
2018-12-20T19:22:40.435Z,9.10
2018-12-20T19:25:08.210Z,9.10
2018-12-20T19:27:35.739Z,9.10
2018-12-20T19:30:04.407Z,9.10
2018-12-20T19:32:31.932Z,9.10
2018-12-20T19:34:59.461Z,9.10
2018-12-20T19:37:26.971Z,9.10
2018-12-20T19:39:56.455Z,9.10
2018-12-20T19:42:23.975Z,9.10
2018-12-20T19:44:51.481Z,9.10
2018-12-20T19:47:18.985Z,9.10
2018-12-20T19:49:46.501Z,9.10
2018-12-20T19:52:14.007Z,9.20
2018-12-20T19:54:47.943Z,9.20
2018-12-20T19:57:11.076Z,9.20
2018-12-20T19:59:39.011Z,9.20
2018-12-20T20:02:06.745Z,9.30
2018-12-20T20:04:34.318Z,9.20
2018-12-20T20:07:01.828Z,9.20
2018-12-20T20:09:29.442Z,9.20
2018-12-20T20:11:56.964Z,9.20
2018-12-20T20:14:24.481Z,9.20
2018-12-20T20:16:52.000Z,9.20
2018-12-20T20:19:19.531Z,9.20
2018-12-20T20:21:47.056Z,9.20
2018-12-20T20:24:14.602Z,9.10
2018-12-20T20:26:42.152Z,9.10
2018-12-20T20:29:09.659Z,9.10
2018-12-20T20:31:37.174Z,9.00
2018-12-20T20:34:04.694Z,9.10
2018-12-20T20:36:32.218Z,9.10
2018-12-20T20:39:02.152Z,9.00
2018-12-20T20:41:29.284Z,9.10
2018-12-20T20:43:56.802Z,9.10
2018-12-20T20:46:24.325Z,9.00
2018-12-20T20:48:51.859Z,9.00
2018-12-20T20:51:19.383Z,9.00
2018-12-20T20:53:46.901Z,9.00
2018-12-20T20:56:14.409Z,8.90
2018-12-20T20:58:41.924Z,8.90
2018-12-20T21:01:09.558Z,8.90
2018-12-20T21:03:37.268Z,8.90
2018-12-20T21:06:04.780Z,8.90
2018-12-20T21:08:32.302Z,8.90
2018-12-20T21:10:59.820Z,8.80
2018-12-20T21:13:27.329Z,8.90
2018-12-20T21:15:55.168Z,8.90
2018-12-20T21:18:22.682Z,8.90
2018-12-20T21:20:50.215Z,8.90
2018-12-20T21:23:17.840Z,8.90
2018-12-20T21:25:45.372Z,8.90
2018-12-20T21:28:12.904Z,8.90
2018-12-20T21:30:40.464Z,8.90
2018-12-20T21:33:07.978Z,8.90
2018-12-20T21:35:35.498Z,9.00
2018-12-20T21:38:03.028Z,9.00
2018-12-20T21:40:30.538Z,8.90
2018-12-20T21:42:58.047Z,8.90
2018-12-20T21:45:25.614Z,8.90
2018-12-20T21:47:53.128Z,8.80
2018-12-20T21:50:20.641Z,8.90
2018-12-20T21:52:48.140Z,8.90
2018-12-20T21:55:15.657Z,8.90
2018-12-20T21:57:43.184Z,8.90
2018-12-20T22:00:10.770Z,8.90
2018-12-20T22:02:38.304Z,8.80
2018-12-20T22:05:05.804Z,8.80
2018-12-20T22:07:33.358Z,8.80
2018-12-20T22:10:00.971Z,8.80
2018-12-20T22:12:28.488Z,8.90
2018-12-20T22:14:55.997Z,8.90
2018-12-20T22:17:23.519Z,8.90
2018-12-20T22:19:58.427Z,9.00
2018-12-20T22:22:20.648Z,9.00
2018-12-20T22:24:48.163Z,9.00
2018-12-20T22:27:15.679Z,9.10
2018-12-20T22:29:43.183Z,9.10
2018-12-20T22:32:10.713Z,9.10
2018-12-20T22:34:38.256Z,9.10
2018-12-20T22:37:05.780Z,9.10
2018-12-20T22:39:33.313Z,9.10
2018-12-20T22:42:00.818Z,9.00
2018-12-20T22:44:28.336Z,9.00
2018-12-20T22:46:55.848Z,9.00
2018-12-20T22:49:23.382Z,9.00
2018-12-20T22:51:50.913Z,9.00
2018-12-20T22:54:18.606Z,9.10
2018-12-20T22:56:46.119Z,9.10
2018-12-20T22:59:13.639Z,9.00
2018-12-20T23:01:41.149Z,9.00
2018-12-20T23:04:08.664Z,9.00
2018-12-20T23:06:36.175Z,9.00
2018-12-20T23:09:05.239Z,9.00
2018-12-20T23:11:32.740Z,9.00
2018-12-20T23:14:00.337Z,8.90
2018-12-20T23:16:27.878Z,8.90
2018-12-20T23:18:55.392Z,8.90
2018-12-20T23:21:22.931Z,8.90
2018-12-20T23:23:50.470Z,8.90
2018-12-20T23:26:17.978Z,8.90
2018-12-20T23:28:45.499Z,8.90
2018-12-20T23:31:13.031Z,8.90
2018-12-20T23:33:40.552Z,9.00
2018-12-20T23:36:08.074Z,9.10
2018-12-20T23:38:35.597Z,9.10
2018-12-20T23:41:03.128Z,9.10
2018-12-20T23:43:30.660Z,9.10
2018-12-20T23:45:58.308Z,9.10
2018-12-20T23:48:25.814Z,9.10
2018-12-20T23:50:53.419Z,9.10
2018-12-20T23:53:20.942Z,9.20
2018-12-20T23:55:48.563Z,9.20
2018-12-20T23:58:16.207Z,9.20
